createdAt,value
2022-09-12T00:00:08.166Z,78.11
2022-09-12T00:01:04.488Z,78.03
2022-09-12T00:01:44.876Z,78.14
2022-09-12T00:02:16.892Z,78.20
2022-09-12T00:02:55.019Z,78.31
2022-09-12T00:03:27.316Z,78.28
2022-09-12T00:04:01.564Z,78.28
2022-09-12T00:04:34.001Z,78.34
2022-09-12T00:05:07.098Z,78.35
2022-09-12T00:05:43.873Z,78.37
2022-09-12T00:06:23.875Z,78.38
2022-09-12T00:06:55.799Z,78.38
2022-09-12T00:07:27.629Z,78.43
2022-09-12T00:08:00.440Z,78.50
2022-09-12T00:08:32.148Z,78.45
2022-09-12T00:09:07.575Z,78.48
2022-09-12T00:09:39.436Z,78.48
2022-09-12T00:10:11.160Z,78.63
2022-09-12T00:10:45.218Z,78.46
2022-09-12T00:11:17.397Z,78.52
2022-09-12T00:11:50.130Z,78.47
2022-09-12T00:12:22.233Z,78.48
2022-09-12T00:12:54.000Z,78.49
2022-09-12T00:13:25.785Z,78.52
2022-09-12T00:14:00.161Z,78.46
2022-09-12T00:14:32.094Z,78.43
2022-09-12T00:15:05.826Z,78.37
2022-09-12T00:15:42.021Z,78.45
2022-09-12T00:16:20.345Z,78.48
2022-09-12T00:16:52.123Z,78.48
2022-09-12T00:17:24.377Z,78.49
2022-09-12T00:17:56.370Z,78.56
2022-09-12T00:18:28.141Z,78.52
2022-09-12T00:19:00.938Z,78.61
2022-09-12T00:19:32.726Z,78.58
2022-09-12T00:20:07.850Z,78.64
2022-09-12T00:20:44.528Z,78.55
2022-09-12T00:21:17.474Z,78.61
2022-09-12T00:21:49.132Z,78.51
2022-09-12T00:22:21.178Z,78.47
2022-09-12T00:22:53.146Z,78.41
2022-09-12T00:23:24.969Z,78.48
2022-09-12T00:23:56.794Z,78.41
2022-09-12T00:24:28.577Z,78.40
2022-09-12T00:25:00.429Z,78.42
2022-09-12T00:25:32.137Z,78.51
2022-09-12T00:26:05.929Z,78.50
2022-09-12T00:26:38.040Z,78.52
2022-09-12T00:27:09.808Z,78.44
2022-09-12T00:27:41.553Z,78.46
2022-09-12T00:28:15.484Z,78.54
2022-09-12T00:28:48.282Z,78.53
2022-09-12T00:29:21.454Z,78.56
2022-09-12T00:29:53.176Z,78.58
2022-09-12T00:30:24.937Z,78.43
2022-09-12T00:30:56.717Z,78.55
2022-09-12T00:31:28.668Z,78.58
2022-09-12T00:32:00.891Z,78.53
2022-09-12T00:32:33.819Z,78.52
2022-09-12T00:33:05.722Z,78.49
2022-09-12T00:33:37.731Z,78.42
2022-09-12T00:34:10.036Z,78.50
2022-09-12T00:34:42.056Z,78.43
2022-09-12T00:35:13.814Z,78.47
2022-09-12T00:35:55.108Z,78.51
2022-09-12T00:36:28.838Z,78.43
2022-09-12T00:37:00.619Z,78.36
2022-09-12T00:37:32.292Z,78.34
2022-09-12T00:38:04.023Z,78.35
2022-09-12T00:38:38.136Z,78.47
2022-09-12T00:39:14.074Z,78.42
2022-09-12T00:39:46.205Z,78.32
2022-09-12T00:40:17.994Z,78.33
2022-09-12T00:40:50.024Z,78.38
2022-09-12T00:41:28.527Z,78.24
2022-09-12T00:42:00.192Z,78.32
2022-09-12T00:42:32.197Z,78.28
2022-09-12T00:43:05.436Z,78.40
2022-09-12T00:43:43.029Z,78.30
2022-09-12T00:44:14.732Z,78.26
2022-09-12T00:44:49.730Z,78.31
2022-09-12T00:45:29.248Z,78.25
2022-09-12T00:46:10.180Z,78.29
2022-09-12T00:46:48.421Z,78.18
2022-09-12T00:47:27.609Z,78.33
2022-09-12T00:48:04.115Z,78.32
2022-09-12T00:48:43.579Z,78.44
2022-09-12T00:49:29.391Z,78.30
2022-09-12T00:50:08.951Z,78.34
2022-09-12T00:50:40.669Z,78.29
2022-09-12T00:51:13.890Z,78.31
2022-09-12T00:51:53.986Z,78.40
2022-09-12T00:52:30.332Z,78.34
2022-09-12T00:53:06.369Z,78.25
2022-09-12T00:53:40.964Z,78.34
2022-09-12T00:54:16.682Z,78.31
2022-09-12T00:54:57.756Z,78.31
2022-09-12T00:55:39.049Z,78.33
2022-09-12T00:56:13.203Z,78.33
2022-09-12T00:56:47.375Z,78.26
2022-09-12T00:57:22.997Z,78.35
2022-09-12T00:58:03.410Z,78.30
2022-09-12T00:58:47.685Z,78.22
2022-09-12T00:59:24.340Z,78.27
2022-09-12T01:00:01.327Z,78.35
2022-09-12T01:00:33.336Z,78.38
2022-09-12T01:01:05.916Z,78.42
2022-09-12T01:01:39.875Z,78.47
2022-09-12T01:02:11.917Z,78.53
2022-09-12T01:02:48.644Z,78.48
2022-09-12T01:03:22.806Z,78.42
2022-09-12T01:03:54.611Z,78.46
2022-09-12T01:04:28.530Z,78.40
2022-09-12T01:05:00.333Z,78.35
2022-09-12T01:05:36.325Z,78.47
2022-09-12T01:06:29.837Z,78.31
2022-09-12T01:07:04.901Z,78.32
2022-09-12T01:07:40.189Z,78.55
2022-09-12T01:08:12.801Z,78.49
2022-09-12T01:08:47.195Z,78.48
2022-09-12T01:09:22.759Z,78.47
2022-09-12T01:09:55.134Z,78.45
2022-09-12T01:10:27.051Z,78.28
2022-09-12T01:10:59.213Z,78.37
2022-09-12T01:11:37.105Z,78.37
2022-09-12T01:12:09.765Z,78.49
2022-09-12T01:12:43.290Z,78.43
2022-09-12T01:13:15.443Z,78.43
2022-09-12T01:13:48.625Z,78.67
2022-09-12T01:14:20.984Z,78.51
2022-09-12T01:14:52.685Z,78.46
2022-09-12T01:15:24.599Z,78.39
2022-09-12T01:15:56.531Z,78.40
2022-09-12T01:16:29.191Z,78.30
2022-09-12T01:17:01.384Z,78.36
2022-09-12T01:17:43.877Z,78.25
2022-09-12T01:18:18.592Z,78.23
2022-09-12T01:19:05.378Z,78.20
2022-09-12T01:20:17.631Z,78.32
2022-09-12T01:21:07.477Z,78.17
2022-09-12T01:22:13.399Z,78.21
2022-09-12T01:23:21.932Z,78.24
2022-09-12T01:24:25.895Z,78.17
2022-09-12T01:25:03.986Z,78.29
2022-09-12T01:25:38.501Z,78.24
2022-09-12T01:26:22.105Z,78.27
2022-09-12T01:27:20.672Z,78.23
2022-09-12T01:28:26.415Z,78.32
2022-09-12T01:29:19.692Z,78.26
2022-09-12T01:30:19.573Z,78.16
2022-09-12T01:31:00.508Z,78.33
2022-09-12T01:32:21.870Z,78.30
2022-09-12T01:33:05.977Z,78.37
2022-09-12T01:33:58.048Z,78.34
2022-09-12T01:34:53.026Z,78.28
2022-09-12T01:35:45.481Z,78.27
2022-09-12T01:36:17.131Z,78.38
2022-09-12T01:37:03.527Z,78.36
2022-09-12T01:37:59.097Z,78.36
2022-09-12T01:38:34.290Z,78.43
2022-09-12T01:39:19.625Z,78.31
2022-09-12T01:40:31.094Z,78.30
2022-09-12T01:41:26.681Z,78.30
2022-09-12T01:42:16.331Z,78.17
2022-09-12T01:43:10.939Z,78.29
2022-09-12T01:43:50.695Z,78.32
2022-09-12T01:44:22.622Z,78.33
2022-09-12T01:45:03.981Z,78.39
2022-09-12T01:45:49.271Z,78.26
2022-09-12T01:46:39.875Z,78.51
2022-09-12T01:47:20.875Z,78.42
2022-09-12T01:47:58.329Z,78.48
2022-09-12T01:48:36.591Z,78.64
2022-09-12T01:50:04.834Z,78.49
2022-09-12T01:50:43.949Z,78.40
2022-09-12T01:51:29.412Z,78.40
2022-09-12T01:52:27.539Z,78.33
2022-09-12T01:53:06.300Z,78.38
2022-09-12T01:53:44.630Z,78.21
2022-09-12T01:54:26.989Z,78.09
2022-09-12T01:55:15.280Z,78.29
2022-09-12T01:56:08.552Z,78.17
2022-09-12T01:56:43.770Z,78.10
2022-09-12T01:57:27.351Z,78.10
2022-09-12T01:58:02.732Z,78.11
2022-09-12T01:58:50.827Z,78.21
2022-09-12T01:59:43.958Z,78.18
2022-09-12T02:00:16.623Z,78.20
2022-09-12T02:01:23.916Z,78.03
2022-09-12T02:02:02.720Z,78.02
2022-09-12T02:02:39.741Z,78.01
2022-09-12T02:03:20.137Z,78.04
2022-09-12T02:04:01.242Z,78.01
2022-09-12T02:04:51.141Z,78.10
2022-09-12T02:05:40.043Z,77.94
2022-09-12T02:06:20.536Z,78.07
2022-09-12T02:06:59.659Z,77.99
2022-09-12T02:07:43.236Z,77.97
2022-09-12T02:08:24.060Z,77.97
2022-09-12T02:09:03.661Z,78.00
2022-09-12T02:09:40.453Z,78.17
2022-09-12T02:10:13.954Z,78.12
2022-09-12T02:11:04.294Z,78.27
2022-09-12T02:11:41.235Z,78.06
2022-09-12T02:12:18.123Z,78.07
2022-09-12T02:12:56.179Z,78.13
2022-09-12T02:13:36.930Z,78.14
2022-09-12T02:14:31.368Z,78.06
2022-09-12T02:15:07.869Z,78.10
2022-09-12T02:15:55.161Z,78.29
2022-09-12T02:16:53.036Z,78.22
2022-09-12T02:17:26.140Z,78.12
2022-09-12T02:18:01.665Z,77.98
2022-09-12T02:18:37.862Z,78.05
2022-09-12T02:19:17.669Z,77.97
2022-09-12T02:19:54.932Z,78.01
2022-09-12T02:20:48.325Z,78.13
2022-09-12T02:21:24.242Z,78.02
2022-09-12T02:21:59.809Z,77.95
2022-09-12T02:22:34.799Z,78.04
2022-09-12T02:23:12.273Z,78.04
2022-09-12T02:23:48.762Z,78.09
2022-09-12T02:24:24.436Z,78.11
2022-09-12T02:25:00.266Z,78.10
2022-09-12T02:25:36.084Z,77.93
2022-09-12T02:26:23.070Z,78.02
2022-09-12T02:26:59.960Z,77.99
2022-09-12T02:27:44.344Z,78.05
2022-09-12T02:28:25.693Z,77.92
2022-09-12T02:28:57.629Z,78.04
2022-09-12T02:29:29.890Z,77.89
2022-09-12T02:30:01.776Z,78.05
2022-09-12T02:30:42.857Z,77.99
2022-09-12T02:31:23.462Z,78.14
2022-09-12T02:32:27.388Z,77.96
2022-09-12T02:33:14.844Z,78.18
2022-09-12T02:34:14.288Z,77.95
2022-09-12T02:35:08.359Z,77.90
2022-09-12T02:35:57.843Z,78.03
2022-09-12T02:36:32.935Z,78.14
2022-09-12T02:37:23.301Z,78.09
2022-09-12T02:38:01.869Z,78.04
2022-09-12T02:38:51.708Z,77.97
2022-09-12T02:39:24.223Z,78.03
2022-09-12T02:39:57.541Z,78.07
2022-09-12T02:40:30.739Z,78.11
2022-09-12T02:41:02.476Z,77.90
2022-09-12T02:41:34.260Z,77.86
2022-09-12T02:42:06.312Z,77.93
2022-09-12T02:42:38.119Z,77.94
2022-09-12T02:43:10.559Z,78.01
2022-09-12T02:43:42.409Z,77.98
2022-09-12T02:44:14.250Z,77.93
2022-09-12T02:44:46.359Z,78.08
2022-09-12T02:45:18.527Z,77.97
2022-09-12T02:45:50.684Z,78.00
2022-09-12T02:46:38.201Z,78.08
2022-09-12T02:47:17.821Z,78.03
2022-09-12T02:47:57.148Z,77.98
2022-09-12T02:48:34.164Z,77.96
2022-09-12T02:49:05.958Z,78.11
2022-09-12T02:49:38.237Z,78.05
2022-09-12T02:50:11.300Z,78.01
2022-09-12T02:50:43.657Z,78.02
2022-09-12T02:51:19.223Z,78.03
2022-09-12T02:51:53.380Z,77.92
2022-09-12T02:52:27.469Z,77.89
2022-09-12T02:53:04.288Z,77.90
2022-09-12T02:53:36.687Z,77.94
2022-09-12T02:54:09.900Z,78.04
2022-09-12T02:54:43.588Z,77.93
2022-09-12T02:55:16.809Z,77.88
2022-09-12T02:55:49.129Z,77.84
2022-09-12T02:56:27.886Z,77.90
2022-09-12T02:56:59.662Z,77.84
2022-09-12T02:57:31.705Z,77.90
2022-09-12T02:58:06.947Z,77.85
2022-09-12T02:58:38.745Z,77.82
2022-09-12T02:59:15.180Z,77.99
2022-09-12T02:59:48.318Z,77.91
2022-09-12T03:00:20.214Z,77.98
2022-09-12T03:01:15.123Z,78.01
2022-09-12T03:01:56.600Z,77.87
2022-09-12T03:02:57.507Z,77.82
2022-09-12T03:03:51.705Z,77.86
2022-09-12T03:05:12.808Z,77.78
2022-09-12T03:06:15.989Z,77.65
2022-09-12T03:06:50.365Z,77.60
2022-09-12T03:07:51.839Z,77.82
2022-09-12T03:08:32.558Z,77.66
2022-09-12T03:09:38.546Z,77.68
2022-09-12T03:10:24.092Z,77.70
2022-09-12T03:11:36.949Z,77.69
2022-09-12T03:12:52.832Z,77.68
2022-09-12T03:13:30.504Z,77.76
2022-09-12T03:14:27.370Z,77.58
2022-09-12T03:15:08.533Z,77.56
2022-09-12T03:15:52.683Z,77.53
2022-09-12T03:16:36.512Z,77.55
2022-09-12T03:17:26.578Z,77.57
2022-09-12T03:18:07.632Z,77.63
2022-09-12T03:18:58.067Z,77.56
2022-09-12T03:19:51.839Z,77.43
2022-09-12T03:20:50.765Z,77.43
2022-09-12T03:21:42.111Z,77.53
2022-09-12T03:22:27.611Z,77.28
2022-09-12T03:23:05.423Z,77.42
2022-09-12T03:23:47.331Z,77.47
2022-09-12T03:25:04.155Z,77.48
2022-09-12T03:25:43.712Z,77.59
2022-09-12T03:26:20.495Z,77.47
2022-09-12T03:26:58.248Z,77.45
2022-09-12T03:27:32.578Z,77.32
2022-09-12T03:28:15.786Z,77.39
2022-09-12T03:28:49.059Z,77.31
2022-09-12T03:29:23.815Z,77.15
2022-09-12T03:29:56.122Z,77.22
2022-09-12T03:30:28.352Z,77.30
2022-09-12T03:31:00.229Z,77.45
2022-09-12T03:31:32.231Z,77.35
2022-09-12T03:32:04.364Z,77.39
2022-09-12T03:32:51.319Z,77.29
2022-09-12T03:33:25.197Z,77.37
2022-09-12T03:33:56.988Z,77.30
2022-09-12T03:34:28.658Z,77.31
2022-09-12T03:35:00.364Z,77.39
2022-09-12T03:35:32.133Z,77.37
2022-09-12T03:36:03.994Z,77.27
2022-09-12T03:36:35.759Z,77.24
2022-09-12T03:37:07.596Z,77.28
2022-09-12T03:37:40.105Z,77.37
2022-09-12T03:38:11.885Z,77.05
2022-09-12T03:38:43.726Z,77.05
2022-09-12T03:39:16.153Z,76.90
2022-09-12T03:39:47.862Z,76.98
2022-09-12T03:40:19.938Z,76.88
2022-09-12T03:40:54.871Z,77.03
2022-09-12T03:41:27.275Z,76.97
2022-09-12T03:41:59.033Z,76.99
2022-09-12T03:42:31.150Z,76.89
2022-09-12T03:43:04.803Z,76.92
2022-09-12T03:43:36.652Z,76.91
2022-09-12T03:44:08.812Z,77.09
2022-09-12T03:44:40.580Z,76.98
2022-09-12T03:45:12.283Z,77.05
2022-09-12T03:45:43.969Z,77.06
2022-09-12T03:46:15.761Z,77.00
2022-09-12T03:46:47.669Z,77.02
2022-09-12T03:47:19.398Z,77.08
2022-09-12T03:47:51.061Z,76.94
2022-09-12T03:48:22.754Z,76.92
2022-09-12T03:48:54.584Z,77.00
2022-09-12T03:49:26.328Z,76.76
2022-09-12T03:49:58.120Z,76.78
2022-09-12T03:50:29.966Z,76.81
2022-09-12T03:51:03.822Z,76.59
2022-09-12T03:51:35.528Z,76.78
2022-09-12T03:52:07.555Z,76.72
2022-09-12T03:52:39.216Z,76.71
2022-09-12T03:53:14.074Z,76.73
2022-09-12T03:53:48.889Z,76.71
2022-09-12T03:54:20.701Z,76.70
2022-09-12T03:54:52.631Z,76.71
2022-09-12T03:55:26.387Z,76.56
2022-09-12T03:55:58.849Z,76.74
2022-09-12T03:56:31.093Z,76.67
2022-09-12T03:57:02.969Z,76.59
2022-09-12T03:57:34.712Z,76.58
2022-09-12T03:58:06.924Z,76.50
2022-09-12T03:58:38.993Z,76.61
2022-09-12T03:59:11.260Z,76.48
2022-09-12T03:59:43.336Z,76.52
2022-09-12T04:00:19.555Z,76.43
2022-09-12T04:00:51.819Z,76.43
2022-09-12T04:01:24.154Z,76.42
2022-09-12T04:01:56.095Z,76.47
2022-09-12T04:02:28.911Z,76.48
2022-09-12T04:03:00.601Z,76.44
2022-09-12T04:03:32.299Z,76.37
2022-09-12T04:04:04.081Z,76.30
2022-09-12T04:04:35.898Z,76.34
2022-09-12T04:05:08.066Z,76.41
2022-09-12T04:05:39.903Z,76.35
2022-09-12T04:06:14.868Z,76.40
2022-09-12T04:06:46.550Z,76.38
2022-09-12T04:07:18.250Z,76.43
2022-09-12T04:07:50.619Z,76.40
2022-09-12T04:08:22.385Z,76.41
2022-09-12T04:08:55.202Z,76.36
2022-09-12T04:09:27.087Z,76.22
2022-09-12T04:09:58.784Z,76.33
2022-09-12T04:10:31.688Z,76.17
2022-09-12T04:11:08.623Z,76.20
2022-09-12T04:11:40.535Z,76.24
2022-09-12T04:12:13.605Z,76.10
2022-09-12T04:12:45.403Z,76.06
2022-09-12T04:13:17.180Z,76.11
2022-09-12T04:13:50.266Z,76.20
2022-09-12T04:14:22.268Z,76.19
2022-09-12T04:14:54.163Z,76.12
2022-09-12T04:15:25.835Z,76.12
2022-09-12T04:15:59.118Z,76.14
2022-09-12T04:16:31.899Z,76.16
2022-09-12T04:17:03.997Z,76.18
2022-09-12T04:17:35.988Z,76.31
2022-09-12T04:18:07.742Z,76.22
2022-09-12T04:18:39.870Z,76.28
2022-09-12T04:19:11.796Z,76.31
2022-09-12T04:19:43.675Z,76.30
2022-09-12T04:20:15.615Z,76.21
2022-09-12T04:20:47.371Z,76.12
2022-09-12T04:21:21.489Z,76.27
2022-09-12T04:21:54.259Z,76.14
2022-09-12T04:22:26.561Z,76.13
2022-09-12T04:22:58.895Z,76.22
2022-09-12T04:23:31.071Z,76.09
2022-09-12T04:24:04.080Z,76.16
2022-09-12T04:24:35.847Z,76.10
2022-09-12T04:25:09.099Z,76.26
2022-09-12T04:25:41.155Z,76.34
2022-09-12T04:26:13.961Z,76.23
2022-09-12T04:26:45.918Z,76.16
2022-09-12T04:27:17.728Z,76.26
2022-09-12T04:27:49.505Z,76.16
2022-09-12T04:28:21.716Z,76.15
2022-09-12T04:28:57.146Z,76.16
2022-09-12T04:29:29.605Z,76.19
2022-09-12T04:30:01.884Z,76.10
2022-09-12T04:30:34.408Z,76.16
2022-09-12T04:31:09.224Z,76.32
2022-09-12T04:31:41.816Z,76.14
2022-09-12T04:32:14.659Z,76.07
2022-09-12T04:32:46.347Z,76.06
2022-09-12T04:33:18.469Z,76.06
2022-09-12T04:33:56.478Z,76.07
2022-09-12T04:34:31.734Z,76.11
2022-09-12T04:35:04.522Z,76.07
2022-09-12T04:35:36.715Z,76.06
2022-09-12T04:36:11.595Z,76.18
2022-09-12T04:36:43.421Z,76.27
2022-09-12T04:37:16.444Z,76.20
2022-09-12T04:37:48.259Z,76.16
2022-09-12T04:38:20.025Z,76.11
2022-09-12T04:38:52.822Z,76.07
2022-09-12T04:39:24.949Z,76.27
2022-09-12T04:39:58.790Z,76.29
2022-09-12T04:40:31.089Z,76.25
2022-09-12T04:41:11.973Z,76.16
2022-09-12T04:41:43.735Z,76.26
2022-09-12T04:42:16.155Z,76.21
2022-09-12T04:42:48.040Z,76.16
2022-09-12T04:43:20.120Z,76.17
2022-09-12T04:43:54.431Z,76.07
2022-09-12T04:44:26.727Z,76.13
2022-09-12T04:44:58.649Z,76.20
2022-09-12T04:45:30.252Z,75.96
2022-09-12T04:46:10.837Z,75.98
2022-09-12T04:46:45.578Z,75.99
2022-09-12T04:47:18.399Z,76.03
2022-09-12T04:47:50.222Z,75.93
2022-09-12T04:48:22.065Z,75.97
2022-09-12T04:48:57.065Z,76.07
2022-09-12T04:49:29.051Z,75.98
2022-09-12T04:50:00.794Z,76.09
2022-09-12T04:50:32.635Z,76.17
2022-09-12T04:51:13.452Z,76.10
2022-09-12T04:51:45.802Z,76.06
2022-09-12T04:52:17.869Z,76.04
2022-09-12T04:52:54.613Z,76.11
2022-09-12T04:53:26.424Z,76.18
2022-09-12T04:54:01.235Z,76.12
2022-09-12T04:54:33.880Z,75.99
2022-09-12T04:55:06.395Z,76.01
2022-09-12T04:55:38.334Z,75.92
2022-09-12T04:56:11.122Z,76.00
2022-09-12T04:56:45.511Z,76.05
2022-09-12T04:57:17.235Z,76.07
2022-09-12T04:57:49.394Z,76.00
2022-09-12T04:58:21.038Z,76.05
2022-09-12T04:58:52.923Z,76.08
2022-09-12T04:59:24.783Z,76.11
2022-09-12T04:59:56.542Z,75.91
2022-09-12T05:00:28.860Z,76.14
2022-09-12T05:01:09.427Z,75.89
2022-09-12T05:01:41.648Z,76.14
2022-09-12T05:02:13.435Z,76.11
2022-09-12T05:02:45.559Z,75.91
2022-09-12T05:03:17.719Z,76.03
2022-09-12T05:03:50.656Z,75.96
2022-09-12T05:04:22.570Z,75.93
2022-09-12T05:04:54.306Z,75.91
2022-09-12T05:05:26.364Z,75.80
2022-09-12T05:05:58.382Z,75.71
2022-09-12T05:06:34.037Z,75.82
2022-09-12T05:07:06.181Z,75.62
2022-09-12T05:07:38.001Z,75.82
2022-09-12T05:08:09.972Z,75.73
2022-09-12T05:08:42.380Z,75.85
2022-09-12T05:09:15.485Z,75.84
2022-09-12T05:09:47.346Z,75.94
2022-09-12T05:10:19.345Z,75.84
2022-09-12T05:10:51.085Z,75.85
2022-09-12T05:11:46.706Z,76.00
2022-09-12T05:12:21.143Z,76.02
2022-09-12T05:12:53.468Z,75.90
2022-09-12T05:13:26.896Z,76.01
2022-09-12T05:13:59.535Z,76.05
2022-09-12T05:14:32.533Z,75.94
2022-09-12T05:15:05.374Z,76.00
2022-09-12T05:15:37.234Z,76.02
2022-09-12T05:16:11.574Z,75.94
2022-09-12T05:16:47.219Z,75.83
2022-09-12T05:17:20.987Z,76.01
2022-09-12T05:17:52.937Z,76.00
2022-09-12T05:18:26.390Z,75.84
2022-09-12T05:18:59.046Z,75.94
2022-09-12T05:19:31.316Z,76.00
2022-09-12T05:20:03.650Z,75.93
2022-09-12T05:20:35.691Z,75.85
2022-09-12T05:21:10.319Z,76.02
2022-09-12T05:21:42.106Z,75.98
2022-09-12T05:22:14.005Z,76.06
2022-09-12T05:22:45.880Z,75.95
2022-09-12T05:23:17.706Z,75.90
2022-09-12T05:23:59.625Z,76.12
2022-09-12T05:24:32.485Z,75.84
2022-09-12T05:25:05.345Z,75.88
2022-09-12T05:25:37.143Z,76.02
2022-09-12T05:26:13.685Z,75.99
2022-09-12T05:26:45.774Z,75.99
2022-09-12T05:27:17.696Z,75.76
2022-09-12T05:27:52.858Z,75.87
2022-09-12T05:28:28.852Z,75.80
2022-09-12T05:29:00.718Z,75.81
2022-09-12T05:29:33.741Z,75.80
2022-09-12T05:30:06.375Z,75.87
2022-09-12T05:30:38.055Z,75.81
2022-09-12T05:31:19.764Z,75.91
2022-09-12T05:31:52.643Z,75.89
2022-09-12T05:32:24.663Z,75.81
2022-09-12T05:32:56.859Z,75.81
2022-09-12T05:33:29.515Z,75.79
2022-09-12T05:34:04.223Z,75.94
2022-09-12T05:34:37.599Z,75.89
2022-09-12T05:35:09.342Z,76.02
2022-09-12T05:35:41.436Z,75.83
2022-09-12T05:36:17.345Z,75.82
2022-09-12T05:36:49.224Z,75.70
2022-09-12T05:37:21.219Z,75.96
2022-09-12T05:37:53.137Z,75.84
2022-09-12T05:38:25.765Z,75.76
2022-09-12T05:38:59.673Z,75.91
2022-09-12T05:39:31.721Z,75.82
2022-09-12T05:40:07.232Z,75.95
2022-09-12T05:40:39.129Z,75.82
2022-09-12T05:41:18.203Z,75.95
2022-09-12T05:41:51.466Z,75.82
2022-09-12T05:42:23.307Z,75.85
2022-09-12T05:42:55.060Z,75.79
2022-09-12T05:43:26.842Z,75.87
2022-09-12T05:44:04.483Z,75.79
2022-09-12T05:44:36.572Z,75.97
2022-09-12T05:45:08.656Z,75.94
2022-09-12T05:45:41.106Z,75.79
2022-09-12T05:46:18.642Z,75.89
2022-09-12T05:46:50.973Z,75.87
2022-09-12T05:47:23.372Z,75.85
2022-09-12T05:47:55.343Z,75.74
2022-09-12T05:48:28.087Z,75.98
2022-09-12T05:49:04.343Z,75.92
2022-09-12T05:49:36.702Z,75.81
2022-09-12T05:50:10.625Z,75.79
2022-09-12T05:50:43.313Z,75.93
2022-09-12T05:51:20.755Z,75.81
2022-09-12T05:51:52.537Z,75.89
2022-09-12T05:52:24.418Z,75.97
2022-09-12T05:52:59.221Z,75.88
2022-09-12T05:53:31.445Z,75.86
2022-09-12T05:54:04.942Z,76.00
2022-09-12T05:54:36.793Z,76.03
2022-09-12T05:55:09.214Z,75.94
2022-09-12T05:55:41.512Z,75.97
2022-09-12T05:56:19.047Z,76.15
2022-09-12T05:56:50.832Z,75.96
2022-09-12T05:57:22.604Z,75.89
2022-09-12T05:57:54.718Z,75.88
2022-09-12T05:58:26.405Z,75.81
2022-09-12T05:59:01.694Z,75.88
2022-09-12T05:59:33.771Z,75.86
2022-09-12T06:00:09.260Z,75.90
2022-09-12T06:00:41.024Z,75.93
2022-09-12T06:01:18.464Z,75.99
2022-09-12T06:01:50.300Z,75.93
2022-09-12T06:02:22.836Z,76.01
2022-09-12T06:02:54.917Z,76.09
2022-09-12T06:03:26.710Z,76.05
2022-09-12T06:04:00.495Z,76.09
2022-09-12T06:04:32.397Z,76.00
2022-09-12T06:05:04.536Z,76.07
2022-09-12T06:05:36.324Z,76.22
2022-09-12T06:06:08.940Z,76.23
2022-09-12T06:06:44.565Z,76.14
2022-09-12T06:07:16.448Z,75.99
2022-09-12T06:07:48.356Z,76.13
2022-09-12T06:08:20.317Z,76.21
2022-09-12T06:08:55.518Z,76.09
2022-09-12T06:09:27.789Z,76.18
2022-09-12T06:09:59.681Z,76.21
2022-09-12T06:10:31.737Z,76.03
2022-09-12T06:11:05.613Z,76.13
2022-09-12T06:11:40.577Z,76.19
2022-09-12T06:12:13.280Z,76.19
2022-09-12T06:12:45.234Z,76.03
2022-09-12T06:13:16.998Z,76.15
2022-09-12T06:13:48.877Z,76.09
2022-09-12T06:14:21.926Z,76.15
2022-09-12T06:14:53.719Z,76.03
2022-09-12T06:15:25.523Z,76.15
2022-09-12T06:16:11.877Z,76.05
2022-09-12T06:16:44.750Z,76.14
2022-09-12T06:17:16.607Z,76.00
2022-09-12T06:17:51.373Z,76.08
2022-09-12T06:18:23.497Z,76.12
2022-09-12T06:18:57.672Z,76.15
2022-09-12T06:19:29.657Z,76.07
2022-09-12T06:20:01.854Z,75.98
2022-09-12T06:20:36.471Z,76.13
2022-09-12T06:21:10.506Z,76.13
2022-09-12T06:21:43.303Z,75.97
2022-09-12T06:22:15.222Z,76.03
2022-09-12T06:22:47.691Z,75.94
2022-09-12T06:23:19.597Z,75.91
2022-09-12T06:23:54.037Z,75.98
2022-09-12T06:24:25.856Z,75.96
2022-09-12T06:24:58.159Z,75.99
2022-09-12T06:25:30.142Z,76.17
2022-09-12T06:26:03.860Z,76.02
2022-09-12T06:26:36.030Z,75.95
2022-09-12T06:27:08.140Z,76.08
2022-09-12T06:27:40.311Z,76.03
2022-09-12T06:28:12.037Z,76.14
2022-09-12T06:28:45.016Z,76.30
2022-09-12T06:29:17.050Z,76.21
2022-09-12T06:29:48.881Z,76.06
2022-09-12T06:30:25.240Z,76.09
2022-09-12T06:31:05.860Z,76.09
2022-09-12T06:31:40.929Z,75.97
2022-09-12T06:32:12.787Z,75.88
2022-09-12T06:32:45.352Z,76.03
2022-09-12T06:33:17.772Z,76.07
2022-09-12T06:33:51.509Z,76.06
2022-09-12T06:34:23.344Z,76.16
2022-09-12T06:34:55.992Z,75.91
2022-09-12T06:35:28.106Z,76.04
2022-09-12T06:36:12.208Z,76.10
2022-09-12T06:36:47.312Z,76.15
2022-09-12T06:37:19.710Z,76.38
2022-09-12T06:37:51.446Z,76.21
2022-09-12T06:38:23.349Z,76.27
2022-09-12T06:38:57.434Z,76.39
2022-09-12T06:39:31.110Z,76.40
2022-09-12T06:40:03.288Z,76.46
2022-09-12T06:40:43.539Z,76.56
2022-09-12T06:41:15.708Z,76.52
2022-09-12T06:41:49.324Z,76.49
2022-09-12T06:42:21.999Z,76.34
2022-09-12T06:42:54.093Z,76.41
2022-09-12T06:43:28.185Z,76.51
2022-09-12T06:44:00.685Z,76.57
2022-09-12T06:44:32.715Z,76.70
2022-09-12T06:45:04.881Z,76.51
2022-09-12T06:45:36.648Z,76.60
2022-09-12T06:46:10.014Z,76.73
2022-09-12T06:46:42.024Z,76.62
2022-09-12T06:47:14.024Z,76.70
2022-09-12T06:47:45.848Z,76.82
2022-09-12T06:48:17.612Z,76.94
2022-09-12T06:48:50.209Z,76.82
2022-09-12T06:49:22.042Z,76.92
2022-09-12T06:49:53.826Z,76.96
2022-09-12T06:50:26.481Z,76.88
2022-09-12T06:51:11.038Z,77.02
2022-09-12T06:51:43.062Z,77.12
2022-09-12T06:52:15.051Z,77.13
2022-09-12T06:52:49.378Z,77.04
2022-09-12T06:53:21.238Z,77.10
2022-09-12T06:53:56.739Z,77.07
2022-09-12T06:54:28.553Z,76.88
2022-09-12T06:55:00.315Z,76.99
2022-09-12T06:55:33.450Z,77.02
2022-09-12T06:56:08.955Z,77.07
2022-09-12T06:56:41.322Z,77.00
2022-09-12T06:57:13.202Z,77.12
2022-09-12T06:57:45.151Z,77.00
2022-09-12T06:58:17.031Z,77.14
2022-09-12T06:58:51.090Z,77.05
2022-09-12T06:59:22.894Z,77.17
2022-09-12T06:59:54.728Z,77.36
2022-09-12T07:00:26.625Z,77.11
2022-09-12T07:01:03.392Z,77.22
2022-09-12T07:01:36.656Z,77.01
2022-09-12T07:02:09.577Z,77.27
2022-09-12T07:02:41.519Z,77.29
2022-09-12T07:03:13.464Z,77.12
2022-09-12T07:03:53.720Z,77.22
2022-09-12T07:04:25.652Z,77.11
2022-09-12T07:04:57.369Z,77.37
2022-09-12T07:05:29.154Z,77.28
2022-09-12T07:06:45.209Z,77.35
2022-09-12T07:07:17.587Z,77.30
2022-09-12T07:07:49.514Z,77.44
2022-09-12T07:08:21.627Z,77.43
2022-09-12T07:08:53.584Z,77.40
2022-09-12T07:09:26.140Z,77.43
2022-09-12T07:09:57.951Z,77.44
2022-09-12T07:10:30.740Z,77.53
2022-09-12T07:11:20.379Z,77.46
2022-09-12T07:11:52.249Z,77.37
2022-09-12T07:12:24.276Z,77.31
2022-09-12T07:12:56.202Z,77.41
2022-09-12T07:13:27.912Z,77.58
2022-09-12T07:14:01.826Z,77.45
2022-09-12T07:14:34.122Z,77.52
2022-09-12T07:15:06.329Z,77.65
2022-09-12T07:15:38.212Z,77.46
2022-09-12T07:16:10.829Z,77.49
2022-09-12T07:16:43.687Z,77.44
2022-09-12T07:17:15.622Z,77.71
2022-09-12T07:17:47.441Z,77.51
2022-09-12T07:18:20.485Z,77.60
2022-09-12T07:18:54.764Z,77.54
2022-09-12T07:19:26.617Z,77.53
2022-09-12T07:19:58.335Z,77.53
2022-09-12T07:20:32.669Z,77.54
2022-09-12T07:21:07.768Z,77.75
2022-09-12T07:21:40.763Z,77.83
2022-09-12T07:22:12.831Z,77.92
2022-09-12T07:22:44.788Z,77.97
2022-09-12T07:23:16.622Z,77.87
2022-09-12T07:23:49.170Z,77.80
2022-09-12T07:24:21.219Z,77.95
2022-09-12T07:24:55.321Z,78.06
2022-09-12T07:25:27.258Z,77.97
2022-09-12T07:26:00.534Z,78.01
2022-09-12T07:26:32.407Z,77.95
2022-09-12T07:27:04.202Z,78.03
2022-09-12T07:27:37.411Z,77.89
2022-09-12T07:28:09.291Z,78.16
2022-09-12T07:28:41.074Z,78.04
2022-09-12T07:29:36.372Z,78.13
2022-09-12T07:30:09.850Z,78.10
2022-09-12T07:30:41.800Z,78.23
2022-09-12T07:31:16.526Z,78.10
2022-09-12T07:31:48.263Z,78.25
2022-09-12T07:32:20.108Z,78.31
2022-09-12T07:32:53.604Z,78.33
2022-09-12T07:33:28.965Z,78.38
2022-09-12T07:34:05.795Z,78.24
2022-09-12T07:34:37.568Z,78.37
2022-09-12T07:35:10.633Z,78.24
2022-09-12T07:35:42.443Z,78.23
2022-09-12T07:36:15.914Z,78.41
2022-09-12T07:36:47.720Z,78.37
2022-09-12T07:37:19.536Z,78.16
2022-09-12T07:37:51.427Z,78.14
2022-09-12T07:38:23.942Z,78.22
2022-09-12T07:38:57.593Z,78.32
2022-09-12T07:39:32.040Z,78.28
2022-09-12T07:40:04.410Z,78.38
2022-09-12T07:40:36.330Z,78.43
2022-09-12T07:41:18.155Z,78.56
2022-09-12T07:41:50.096Z,78.52
2022-09-12T07:42:21.915Z,78.28